createdAt,value
2022-11-01T00:02:16.919Z,16.13
2022-11-01T00:04:46.159Z,16.07
2022-11-01T00:07:15.678Z,15.70
2022-11-01T00:09:44.562Z,17.43
2022-11-01T00:12:17.553Z,14.50
2022-11-01T00:14:46.433Z,17.17
2022-11-01T00:17:16.009Z,14.20
2022-11-01T00:19:46.323Z,14.80
2022-11-01T00:22:16.192Z,15.27
2022-11-01T00:24:45.500Z,15.60
2022-11-01T00:27:16.269Z,16.57
2022-11-01T00:29:45.840Z,14.70
2022-11-01T00:32:14.861Z,15.70
2022-11-01T00:34:44.133Z,16.67
2022-11-01T00:37:13.238Z,16.00
2022-11-01T00:39:41.988Z,15.53
2022-11-01T00:42:10.765Z,15.33
2022-11-01T00:44:40.918Z,16.27
2022-11-01T00:47:09.582Z,15.23
2022-11-01T00:49:38.216Z,15.83
2022-11-01T00:52:06.922Z,15.27
2022-11-01T00:54:55.259Z,15.87
2022-11-01T00:57:24.157Z,15.67
2022-11-01T00:59:54.235Z,15.77
2022-11-01T01:02:23.759Z,16.53
2022-11-01T01:04:52.622Z,16.67
2022-11-01T01:07:21.422Z,17.73
2022-11-01T01:09:50.253Z,17.27
2022-11-01T01:12:18.847Z,15.50
2022-11-01T01:14:47.539Z,17.23
2022-11-01T01:17:17.780Z,15.27
2022-11-01T01:19:46.460Z,15.00
2022-11-01T01:22:15.716Z,15.87
2022-11-01T01:24:47.820Z,16.57
2022-11-01T01:27:17.749Z,15.00
2022-11-01T01:29:46.655Z,16.53
2022-11-01T01:32:18.173Z,17.37
2022-11-01T01:34:46.993Z,16.27
2022-11-01T01:37:20.302Z,16.57
2022-11-01T01:39:49.290Z,15.77
2022-11-01T01:42:25.449Z,15.77
2022-11-01T01:45:28.801Z,15.83
2022-11-01T01:48:04.346Z,15.97
2022-11-01T01:50:37.437Z,16.47
2022-11-01T01:53:10.797Z,15.27
2022-11-01T01:55:46.210Z,17.77
2022-11-01T01:58:17.938Z,16.47
2022-11-01T02:00:46.952Z,15.07
2022-11-01T02:03:17.854Z,15.27
2022-11-01T02:05:51.673Z,16.00
2022-11-01T02:08:27.971Z,16.30
2022-11-01T02:11:00.581Z,17.33
2022-11-01T02:13:31.550Z,18.33
2022-11-01T02:16:38.327Z,15.97
2022-11-01T02:19:31.086Z,15.70
2022-11-01T02:22:06.367Z,15.93
2022-11-01T02:24:51.189Z,16.10
2022-11-01T02:27:25.627Z,15.00
2022-11-01T02:30:19.888Z,16.53
2022-11-01T02:33:04.390Z,16.10
2022-11-01T02:35:44.903Z,16.43
2022-11-01T02:38:21.832Z,15.47
2022-11-01T02:40:57.918Z,15.20
2022-11-01T02:43:32.387Z,16.93
2022-11-01T02:46:24.798Z,16.07
2022-11-01T02:48:56.170Z,15.27
2022-11-01T02:51:27.708Z,14.50
2022-11-01T02:53:56.676Z,16.63
2022-11-01T02:56:26.056Z,16.57
2022-11-01T02:58:56.895Z,16.10
2022-11-01T03:01:31.092Z,14.97
2022-11-01T03:04:04.741Z,15.07
2022-11-01T03:06:38.651Z,15.83
2022-11-01T03:09:14.674Z,14.83
2022-11-01T03:11:55.183Z,16.47
2022-11-01T03:14:31.454Z,16.27
2022-11-01T03:17:04.364Z,15.47
2022-11-01T03:19:40.666Z,16.83
2022-11-01T03:22:15.402Z,14.90
2022-11-01T03:24:53.687Z,17.53
2022-11-01T03:27:29.422Z,16.03
2022-11-01T03:30:03.187Z,15.80
2022-11-01T03:32:41.590Z,17.00
2022-11-01T03:35:17.289Z,15.73
2022-11-01T03:38:43.259Z,16.57
2022-11-01T03:41:15.916Z,15.70
2022-11-01T03:43:45.679Z,16.90
2022-11-01T03:46:16.673Z,14.23
2022-11-01T03:48:50.628Z,16.80
2022-11-01T03:51:20.987Z,14.83
2022-11-01T03:53:49.685Z,16.30
2022-11-01T03:56:18.915Z,15.73
2022-11-01T03:58:47.691Z,15.00
2022-11-01T04:01:19.936Z,14.43
2022-11-01T04:03:49.137Z,16.00
2022-11-01T04:06:20.892Z,16.97
2022-11-01T04:08:52.458Z,16.43
2022-11-01T04:11:21.272Z,15.67
2022-11-01T04:13:50.162Z,15.40
2022-11-01T04:16:36.737Z,15.27
2022-11-01T04:19:28.235Z,14.53
2022-11-01T04:21:57.632Z,14.93
2022-11-01T04:24:27.922Z,15.90
2022-11-01T04:26:59.782Z,15.47
2022-11-01T04:29:29.176Z,15.67
2022-11-01T04:31:58.159Z,14.87
2022-11-01T04:34:41.107Z,14.43
2022-11-01T04:37:10.464Z,14.80
2022-11-01T04:39:40.661Z,15.90
2022-11-01T04:42:11.043Z,13.03
2022-11-01T04:44:39.772Z,15.07
2022-11-01T04:47:08.972Z,13.57
2022-11-01T04:49:40.609Z,15.40
2022-11-01T04:52:09.976Z,14.33
2022-11-01T04:54:48.075Z,14.63
2022-11-01T04:57:24.738Z,13.17
2022-11-01T04:59:58.137Z,13.73
2022-11-01T05:02:31.586Z,14.87
2022-11-01T05:05:02.255Z,12.67
2022-11-01T05:07:36.634Z,12.60
2022-11-01T05:10:08.697Z,14.50
2022-11-01T05:12:38.980Z,12.73
2022-11-01T05:15:12.066Z,13.57
2022-11-01T05:17:43.599Z,12.97
2022-11-01T05:20:15.784Z,13.10
2022-11-01T05:22:45.242Z,12.97
2022-11-01T05:25:21.531Z,13.10
2022-11-01T05:27:50.732Z,12.80
2022-11-01T05:30:22.415Z,13.37
2022-11-01T05:32:56.530Z,12.60
2022-11-01T05:35:28.559Z,12.27
2022-11-01T05:38:01.437Z,12.30
2022-11-01T05:40:32.631Z,11.87
2022-11-01T05:43:02.265Z,12.70
2022-11-01T05:45:31.857Z,11.60
2022-11-01T05:48:04.173Z,12.23
2022-11-01T05:50:33.471Z,12.13
2022-11-01T05:53:10.353Z,12.53
2022-11-01T05:55:43.402Z,12.30
2022-11-01T05:58:30.600Z,10.93
2022-11-01T06:01:00.865Z,12.37
2022-11-01T06:03:29.987Z,12.93
2022-11-01T06:06:02.738Z,13.10
2022-11-01T06:08:41.049Z,13.87
2022-11-01T06:11:14.300Z,11.83
2022-11-01T06:13:43.625Z,13.07
2022-11-01T06:16:15.085Z,11.13
2022-11-01T06:18:46.805Z,12.13
2022-11-01T06:21:19.161Z,10.73
2022-11-01T06:23:50.649Z,11.20
2022-11-01T06:26:21.032Z,11.43
2022-11-01T06:28:49.845Z,13.60
2022-11-01T06:31:18.525Z,11.43
2022-11-01T06:33:50.138Z,12.60
2022-11-01T06:36:18.814Z,11.47
2022-11-01T06:38:47.735Z,12.93
2022-11-01T06:41:16.937Z,11.23
2022-11-01T06:43:49.738Z,12.97
2022-11-01T06:46:18.328Z,11.03
2022-11-01T06:48:48.991Z,12.43
2022-11-01T06:51:17.698Z,10.60
2022-11-01T06:53:46.547Z,12.37
2022-11-01T06:56:15.975Z,10.97
2022-11-01T06:58:50.074Z,12.40
2022-11-01T07:01:22.189Z,10.40
2022-11-01T07:03:52.062Z,12.10
2022-11-01T07:06:21.049Z,11.63
2022-11-01T07:08:49.667Z,13.23
2022-11-01T07:11:18.530Z,12.80
2022-11-01T07:13:48.705Z,12.90
2022-11-01T07:16:17.369Z,10.70
2022-11-01T07:18:46.043Z,11.90
2022-11-01T07:21:15.314Z,10.77
2022-11-01T07:23:44.225Z,12.53
2022-11-01T07:26:13.410Z,11.60
2022-11-01T07:28:42.566Z,12.43
2022-11-01T07:31:13.114Z,11.27
2022-11-01T07:33:41.859Z,13.27
2022-11-01T07:36:10.761Z,11.57
2022-11-01T07:38:39.719Z,11.73
2022-11-01T07:41:09.221Z,9.53
2022-11-01T07:43:38.760Z,11.50
2022-11-01T07:46:08.029Z,11.60
2022-11-01T07:48:39.290Z,12.60
2022-11-01T07:51:09.814Z,11.50
2022-11-01T07:53:38.531Z,12.63
2022-11-01T07:56:08.627Z,10.97
2022-11-01T07:58:37.743Z,10.90
2022-11-01T08:01:06.717Z,11.77
2022-11-01T08:03:35.409Z,13.00
2022-11-01T08:06:05.883Z,11.17
2022-11-01T08:08:34.733Z,12.77
2022-11-01T08:11:03.534Z,11.43
2022-11-01T08:13:32.844Z,12.50
2022-11-01T08:16:03.589Z,11.63
2022-11-01T08:18:32.178Z,13.50
2022-11-01T08:21:00.933Z,11.80
2022-11-01T08:23:31.012Z,12.47
2022-11-01T08:25:59.857Z,11.43
2022-11-01T08:28:30.730Z,12.03
2022-11-01T08:30:59.374Z,12.23
2022-11-01T08:33:27.904Z,10.80
2022-11-01T08:35:56.645Z,12.90
2022-11-01T08:38:25.468Z,12.37
2022-11-01T08:40:55.515Z,13.17
2022-11-01T08:43:24.402Z,11.43
2022-11-01T08:45:53.145Z,12.10
2022-11-01T08:48:21.741Z,12.20
2022-11-01T08:50:50.837Z,12.73
2022-11-01T08:53:19.652Z,11.50
2022-11-01T08:58:18.510Z,12.37
2022-11-01T09:00:47.202Z,13.40
2022-11-01T09:03:16.456Z,12.40
2022-11-01T09:05:48.872Z,13.93
2022-11-01T09:08:17.505Z,12.67
2022-11-01T09:10:46.231Z,13.63
2022-11-01T09:13:15.506Z,12.20
2022-11-01T09:15:46.180Z,14.03
2022-11-01T09:18:15.975Z,13.27
2022-11-01T09:20:45.477Z,13.40
2022-11-01T09:23:15.072Z,13.03
2022-11-01T09:25:44.296Z,13.73
2022-11-01T09:28:13.300Z,11.93
2022-11-01T09:30:49.677Z,13.30
2022-11-01T09:33:23.596Z,13.13
2022-11-01T09:35:58.353Z,14.30
2022-11-01T09:38:28.457Z,13.37
2022-11-01T09:41:02.831Z,13.93
2022-11-01T09:43:33.920Z,14.27
2022-11-01T09:46:05.311Z,13.30
2022-11-01T09:48:37.895Z,16.40
2022-11-01T09:51:14.320Z,12.70
2022-11-01T09:53:44.413Z,15.67
2022-11-01T09:56:17.468Z,13.83
2022-11-01T09:58:56.473Z,15.30
2022-11-01T10:01:39.793Z,16.13
2022-11-01T10:04:32.208Z,14.07
2022-11-01T10:07:07.190Z,14.73
2022-11-01T10:09:46.159Z,15.13
2022-11-01T10:12:26.350Z,13.67
2022-11-01T10:15:25.034Z,14.53
2022-11-01T10:17:55.462Z,16.20
2022-11-01T10:20:30.151Z,14.00
2022-11-01T10:23:00.554Z,15.23
2022-11-01T10:25:33.242Z,13.50
2022-11-01T10:28:11.855Z,15.37
2022-11-01T10:30:46.911Z,15.17
2022-11-01T10:33:27.371Z,15.03
2022-11-01T10:36:02.478Z,15.47
2022-11-01T10:39:23.079Z,15.30
2022-11-01T10:41:36.399Z,14.77
2022-11-01T10:44:10.557Z,15.70
2022-11-01T10:46:42.125Z,13.57
2022-11-01T10:49:22.397Z,13.07
2022-11-01T10:51:57.833Z,15.97
2022-11-01T10:54:31.409Z,13.37
2022-11-01T10:57:04.794Z,14.87
2022-11-01T10:59:37.403Z,15.00
2022-11-01T11:02:16.382Z,14.53
2022-11-01T11:04:46.076Z,16.07
2022-11-01T11:07:19.958Z,15.50
2022-11-01T11:09:52.149Z,15.87
2022-11-01T11:12:23.330Z,15.07
2022-11-01T11:14:57.189Z,15.90
2022-11-01T11:17:30.019Z,14.80
2022-11-01T11:20:04.699Z,14.87
2022-11-01T11:22:39.780Z,14.97
2022-11-01T11:25:15.612Z,15.23
2022-11-01T11:27:48.600Z,14.93
2022-11-01T11:30:29.370Z,15.07
2022-11-01T11:32:59.025Z,14.37
2022-11-01T11:35:29.555Z,14.43
2022-11-01T11:38:01.896Z,14.50
2022-11-01T11:40:45.825Z,14.73
2022-11-01T11:43:26.070Z,14.10
2022-11-01T11:46:21.074Z,15.87
2022-11-01T11:48:52.261Z,15.37
2022-11-01T11:51:22.048Z,13.93
2022-11-01T11:54:25.994Z,14.37
2022-11-01T11:57:10.901Z,15.53
2022-11-01T11:59:40.432Z,15.47
2022-11-01T12:02:20.212Z,14.70
2022-11-01T12:04:54.815Z,14.67
2022-11-01T12:07:27.829Z,14.30
2022-11-01T12:10:02.212Z,16.70
2022-11-01T12:12:32.999Z,14.43
2022-11-01T12:15:03.848Z,15.30
2022-11-01T12:17:36.551Z,15.30
2022-11-01T12:20:17.032Z,15.83
2022-11-01T12:22:51.013Z,13.70
2022-11-01T12:25:24.082Z,16.33
2022-11-01T12:28:00.765Z,18.17
2022-11-01T12:30:33.307Z,14.97
2022-11-01T12:33:07.723Z,15.90
2022-11-01T12:35:42.167Z,15.37
2022-11-01T12:38:39.130Z,14.80
2022-11-01T12:41:25.643Z,14.90
2022-11-01T12:44:03.767Z,17.10
2022-11-01T12:46:39.322Z,15.87
2022-11-01T12:49:15.596Z,15.33
2022-11-01T12:51:50.321Z,15.47
2022-11-01T12:54:27.383Z,15.13
2022-11-01T12:56:58.365Z,17.93
2022-11-01T12:59:34.059Z,17.10
2022-11-01T13:02:15.450Z,17.20
2022-11-01T13:04:52.757Z,14.33
2022-11-01T13:07:36.188Z,15.93
2022-11-01T13:10:11.716Z,17.27
2022-11-01T13:12:49.537Z,15.73
2022-11-01T13:15:27.340Z,17.73
2022-11-01T13:18:04.735Z,16.00
2022-11-01T13:20:47.483Z,17.20
2022-11-01T13:23:23.169Z,15.33
2022-11-01T13:25:58.683Z,16.40
2022-11-01T13:28:45.556Z,15.63
2022-11-01T13:31:27.734Z,15.83
2022-11-01T13:34:04.769Z,18.03
2022-11-01T13:36:38.757Z,16.30
2022-11-01T13:39:15.897Z,17.37
2022-11-01T13:41:52.182Z,14.37
2022-11-01T13:44:25.556Z,15.20
2022-11-01T13:47:20.003Z,17.43
2022-11-01T13:50:34.008Z,15.67
2022-11-01T13:53:16.207Z,19.50
2022-11-01T13:55:50.876Z,16.23
2022-11-01T13:58:20.744Z,14.83
2022-11-01T14:00:52.243Z,14.50
2022-11-01T14:03:25.473Z,15.63
2022-11-01T14:09:27.452Z,16.27
2022-11-01T14:11:57.757Z,17.23
2022-11-01T14:14:52.290Z,14.53
2022-11-01T14:18:07.438Z,15.37
2022-11-01T14:20:51.942Z,14.37
2022-11-01T14:24:06.544Z,14.33
2022-11-01T14:26:48.226Z,14.50
2022-11-01T14:29:17.191Z,15.10
2022-11-01T14:31:49.564Z,14.90
2022-11-01T14:34:36.087Z,14.17
2022-11-01T14:37:15.977Z,17.70
2022-11-01T14:39:59.138Z,16.53
2022-11-01T14:42:38.501Z,15.43
2022-11-01T14:45:32.019Z,15.97
2022-11-01T14:48:07.333Z,16.43
2022-11-01T14:50:46.719Z,13.93
2022-11-01T14:53:24.382Z,14.53
2022-11-01T14:56:05.397Z,14.47
2022-11-01T14:58:37.572Z,14.30
2022-11-01T15:01:07.889Z,15.77
2022-11-01T15:03:36.654Z,14.80
2022-11-01T15:06:21.762Z,17.03
2022-11-01T15:08:50.904Z,15.00
2022-11-01T15:11:20.511Z,15.90
2022-11-01T15:13:51.144Z,14.60
2022-11-01T15:16:23.262Z,13.93
2022-11-01T15:18:56.247Z,15.40
2022-11-01T15:21:31.366Z,16.43
2022-11-01T15:24:02.724Z,17.03
2022-11-01T15:26:34.032Z,14.30
2022-11-01T15:29:05.875Z,16.07
2022-11-01T15:31:35.855Z,14.53
2022-11-01T15:34:07.842Z,16.33
2022-11-01T15:36:39.874Z,13.83
2022-11-01T15:39:19.540Z,14.20
2022-11-01T15:41:49.431Z,14.10
2022-11-01T15:44:23.297Z,15.00
2022-11-01T15:46:57.503Z,13.30
2022-11-01T15:49:29.648Z,12.93
2022-11-01T15:52:04.338Z,14.70
2022-11-01T15:54:45.420Z,14.50
2022-11-01T15:57:22.003Z,13.70
2022-11-01T15:59:58.494Z,14.30
2022-11-01T16:02:33.175Z,14.03
2022-11-01T16:05:03.423Z,13.23
2022-11-01T16:07:34.710Z,13.50
2022-11-01T16:10:05.941Z,14.17
2022-11-01T16:12:38.880Z,14.43
2022-11-01T16:15:18.982Z,14.23
2022-11-01T16:17:48.605Z,13.00
2022-11-01T16:20:32.888Z,14.93
2022-11-01T16:23:03.742Z,13.73
2022-11-01T16:25:34.675Z,14.80
2022-11-01T16:28:07.315Z,13.67
2022-11-01T16:30:40.822Z,12.73
2022-11-01T16:33:21.780Z,14.13
2022-11-01T16:35:52.069Z,14.63
2022-11-01T16:38:27.273Z,15.43
2022-11-01T16:40:58.153Z,15.77
2022-11-01T16:43:29.196Z,12.97
2022-11-01T16:45:58.949Z,13.73
2022-11-01T16:48:29.288Z,14.43
2022-11-01T16:50:59.547Z,14.47
2022-11-01T16:53:30.865Z,13.70
2022-11-01T16:56:34.866Z,13.70
2022-11-01T16:58:59.425Z,14.43
2022-11-01T17:01:35.056Z,15.10
2022-11-01T17:04:05.195Z,16.20
2022-11-01T17:06:39.051Z,17.60
2022-11-01T17:09:14.224Z,15.70
2022-11-01T17:11:50.483Z,14.53
2022-11-01T17:14:20.494Z,13.33
2022-11-01T17:16:50.773Z,18.03
2022-11-01T17:19:23.979Z,14.97
2022-11-01T17:21:53.958Z,13.87
2022-11-01T17:24:27.384Z,16.63
2022-11-01T17:27:00.696Z,13.83
2022-11-01T17:29:29.696Z,15.27
2022-11-01T17:31:58.989Z,14.57
2022-11-01T17:34:29.145Z,14.30
2022-11-01T17:36:58.476Z,13.97
2022-11-01T17:39:30.757Z,14.90
2022-11-01T17:41:59.579Z,15.40
2022-11-01T17:44:28.599Z,14.57
2022-11-01T17:46:57.339Z,14.37
2022-11-01T17:49:26.328Z,12.83
2022-11-01T17:51:55.533Z,14.67
2022-11-01T17:56:55.005Z,15.13
2022-11-01T17:59:24.005Z,14.90
2022-11-01T18:01:52.918Z,16.27
2022-11-01T18:04:21.607Z,15.67
2022-11-01T18:06:53.413Z,14.37
2022-11-01T18:09:25.285Z,15.77
2022-11-01T18:12:02.787Z,13.23
2022-11-01T18:14:44.708Z,15.13
2022-11-01T18:17:26.024Z,15.30
2022-11-01T18:19:58.920Z,15.83
2022-11-01T18:22:39.945Z,13.60
2022-11-01T18:25:22.286Z,14.20
2022-11-01T18:27:52.594Z,13.37
2022-11-01T18:30:22.399Z,15.70
2022-11-01T18:32:56.599Z,13.27
2022-11-01T18:35:32.340Z,15.00
2022-11-01T18:38:14.763Z,12.47
2022-11-01T18:40:57.899Z,12.97
2022-11-01T18:43:32.393Z,12.40
2022-11-01T18:46:24.039Z,12.20
2022-11-01T18:48:59.664Z,13.03
2022-11-01T18:51:31.363Z,14.97
2022-11-01T18:54:22.350Z,14.13
2022-11-01T18:56:54.238Z,12.77
2022-11-01T18:59:30.399Z,13.37
2022-11-01T19:02:03.488Z,13.63
2022-11-01T19:04:35.777Z,13.40
2022-11-01T19:07:13.194Z,14.80
2022-11-01T19:09:46.071Z,11.83
2022-11-01T19:12:22.767Z,14.50
2022-11-01T19:14:59.157Z,12.57
2022-11-01T19:17:30.674Z,13.57
2022-11-01T19:20:00.827Z,12.83
2022-11-01T19:22:34.544Z,13.83
2022-11-01T19:25:04.886Z,14.10
2022-11-01T19:27:33.723Z,12.33
2022-11-01T19:30:04.391Z,13.07
2022-11-01T19:32:33.165Z,13.87
2022-11-01T19:35:02.880Z,12.90
2022-11-01T19:37:36.545Z,13.53
2022-11-01T19:40:20.838Z,13.10
2022-11-01T19:42:51.835Z,13.70
2022-11-01T19:45:33.047Z,13.27
2022-11-01T19:48:04.739Z,13.53
2022-11-01T19:50:39.390Z,14.43
2022-11-01T19:53:22.318Z,12.97
2022-11-01T19:55:59.186Z,12.70
2022-11-01T19:58:42.265Z,14.10
2022-11-01T20:01:28.680Z,13.47
2022-11-01T20:03:58.794Z,13.37
2022-11-01T20:06:35.562Z,14.50
2022-11-01T20:09:07.530Z,13.13
2022-11-01T20:11:38.409Z,14.13
2022-11-01T20:14:07.855Z,14.23
2022-11-01T20:16:38.991Z,15.57
2022-11-01T20:19:10.834Z,13.97
2022-11-01T20:21:42.130Z,14.30
2022-11-01T20:24:13.178Z,12.47
2022-11-01T20:26:43.155Z,15.17
2022-11-01T20:29:13.028Z,13.33
2022-11-01T20:31:48.003Z,14.47
2022-11-01T20:34:27.683Z,13.57
2022-11-01T20:37:22.815Z,14.30
2022-11-01T20:39:49.287Z,13.73
2022-11-01T20:42:21.211Z,14.63
2022-11-01T20:44:50.915Z,13.77
2022-11-01T20:47:23.424Z,13.97
2022-11-01T20:49:55.657Z,13.60
2022-11-01T20:52:39.045Z,13.03
2022-11-01T20:55:10.800Z,12.63
2022-11-01T20:57:40.234Z,11.90
2022-11-01T21:00:13.400Z,14.57
2022-11-01T21:02:44.669Z,12.40
2022-11-01T21:05:25.933Z,13.20
2022-11-01T21:07:58.463Z,13.83
2022-11-01T21:10:32.172Z,14.13
2022-11-01T21:13:02.782Z,12.47
2022-11-01T21:15:36.402Z,13.47
2022-11-01T21:18:34.099Z,13.70
2022-11-01T21:21:29.363Z,12.93
2022-11-01T21:23:58.826Z,12.17
2022-11-01T21:26:32.864Z,13.00
2022-11-01T21:29:06.084Z,12.67
2022-11-01T21:31:36.469Z,14.87
2022-11-01T21:34:24.386Z,12.70
2022-11-01T21:36:53.551Z,12.10
2022-11-01T21:39:28.213Z,13.10
2022-11-01T21:41:59.397Z,12.97
2022-11-01T21:44:36.858Z,15.30
2022-11-01T21:47:16.470Z,13.43
2022-11-01T21:49:49.894Z,11.93
2022-11-01T21:52:20.213Z,12.80
2022-11-01T21:54:53.306Z,12.67
2022-11-01T21:57:22.199Z,13.50
2022-11-01T21:59:51.943Z,14.03
2022-11-01T22:02:20.813Z,15.87
2022-11-01T22:04:51.478Z,13.03
2022-11-01T22:07:21.238Z,13.97
2022-11-01T22:09:50.041Z,13.40
2022-11-01T22:12:18.796Z,13.77
2022-11-01T22:14:47.573Z,11.97
2022-11-01T22:17:19.286Z,12.30
2022-11-01T22:19:48.838Z,11.67
2022-11-01T22:22:18.987Z,13.40
2022-11-01T22:24:47.817Z,13.13
2022-11-01T22:27:16.618Z,11.80
2022-11-01T22:29:46.256Z,14.23
2022-11-01T22:32:17.546Z,14.03
2022-11-01T22:34:47.369Z,12.70
2022-11-01T22:37:16.532Z,13.90
2022-11-01T22:39:53.021Z,12.63
2022-11-01T22:42:22.730Z,12.63
2022-11-01T22:44:51.939Z,14.03
2022-11-01T22:47:26.176Z,13.63
2022-11-01T22:49:56.988Z,13.83
2022-11-01T22:52:32.235Z,12.57
2022-11-01T22:55:15.417Z,12.30
2022-11-01T22:57:47.955Z,10.50
2022-11-01T23:00:30.053Z,13.90
2022-11-01T23:03:03.796Z,12.50
2022-11-01T23:05:33.127Z,12.90
2022-11-01T23:08:13.189Z,15.07
2022-11-01T23:10:50.899Z,10.63
2022-11-01T23:13:42.917Z,15.17
2022-11-01T23:16:24.761Z,14.17
2022-11-01T23:18:57.611Z,12.67
2022-11-01T23:21:28.005Z,14.87
2022-11-01T23:23:57.043Z,12.07
2022-11-01T23:26:27.493Z,13.27
2022-11-01T23:28:58.348Z,13.10
2022-11-01T23:31:29.423Z,13.03
2022-11-01T23:33:58.170Z,11.60
2022-11-01T23:36:32.037Z,13.20
2022-11-01T23:39:03.663Z,11.73
2022-11-01T23:41:35.931Z,12.63
2022-11-01T23:44:13.433Z,13.13
2022-11-01T23:46:43.225Z,13.13
2022-11-01T23:49:18.574Z,12.73
2022-11-01T23:51:47.518Z,13.53
2022-11-01T23:54:23.798Z,12.63
2022-11-01T23:56:56.458Z,13.47
2022-11-01T23:59:25.382Z,14.83
